createdAt,value
2023-02-09T00:01:36.491Z,24.30
2023-02-09T00:04:03.189Z,24.40
2023-02-09T00:06:30.285Z,22.73
2023-02-09T00:08:58.106Z,22.07
2023-02-09T00:11:48.557Z,22.77
2023-02-09T00:14:18.208Z,25.60
2023-02-09T00:16:46.497Z,23.80
2023-02-09T00:19:13.572Z,61.17
2023-02-09T00:21:40.872Z,23.93
2023-02-09T00:24:08.311Z,24.00
2023-02-09T00:26:34.984Z,25.57
2023-02-09T00:29:02.094Z,23.73
2023-02-09T00:31:29.271Z,22.40
2023-02-09T00:33:55.977Z,22.00
2023-02-09T00:36:22.652Z,22.10
2023-02-09T00:38:49.557Z,22.93
2023-02-09T00:41:16.542Z,25.90
2023-02-09T00:43:43.516Z,23.80
2023-02-09T00:46:10.432Z,24.10
2023-02-09T00:48:37.213Z,24.77
2023-02-09T00:51:03.973Z,23.40
2023-02-09T00:53:30.608Z,21.30
2023-02-09T00:55:57.329Z,23.80
2023-02-09T00:58:23.987Z,24.57
2023-02-09T01:00:50.698Z,23.70
2023-02-09T01:03:17.426Z,22.40
2023-02-09T01:05:44.133Z,35.97
2023-02-09T01:08:10.864Z,25.90
2023-02-09T01:10:38.570Z,24.63
2023-02-09T01:13:05.441Z,24.50
2023-02-09T01:15:32.194Z,23.90
2023-02-09T01:17:59.516Z,22.50
2023-02-09T01:20:26.952Z,23.93
2023-02-09T01:22:53.665Z,25.20
2023-02-09T01:25:20.365Z,22.27
2023-02-09T01:27:47.029Z,23.83
2023-02-09T01:30:14.176Z,23.77
2023-02-09T01:32:40.932Z,84.13
2023-02-09T01:35:08.128Z,29.77
2023-02-09T01:37:35.758Z,25.03
2023-02-09T01:40:03.727Z,24.93
2023-02-09T01:42:30.567Z,23.07
2023-02-09T01:45:41.284Z,22.83
2023-02-09T01:48:07.932Z,25.20
2023-02-09T01:50:39.281Z,24.90
2023-02-09T01:53:06.823Z,23.60
2023-02-09T01:55:38.193Z,24.30
2023-02-09T01:58:14.161Z,23.30
2023-02-09T02:00:40.998Z,24.37
2023-02-09T02:03:15.246Z,23.87
2023-02-09T02:05:44.449Z,25.00
2023-02-09T02:08:27.338Z,23.50
2023-02-09T02:10:54.266Z,23.77
2023-02-09T02:13:21.214Z,22.33
2023-02-09T02:16:06.810Z,23.50
2023-02-09T02:19:02.255Z,24.23
2023-02-09T02:21:50.201Z,23.10
2023-02-09T02:25:00.305Z,23.50
2023-02-09T02:27:44.574Z,22.90
2023-02-09T02:30:26.234Z,21.90
2023-02-09T02:33:04.490Z,24.63
2023-02-09T02:35:43.821Z,21.87
2023-02-09T02:38:19.101Z,21.47
2023-02-09T02:41:15.789Z,22.63
2023-02-09T02:43:51.789Z,20.50
2023-02-09T02:46:37.122Z,21.60
2023-02-09T02:49:22.947Z,22.37
2023-02-09T02:51:53.607Z,23.87
2023-02-09T02:54:27.700Z,21.40
2023-02-09T02:57:09.648Z,19.40
2023-02-09T02:59:45.264Z,21.57
2023-02-09T03:02:21.238Z,22.57
2023-02-09T03:04:52.598Z,22.10
2023-02-09T03:07:20.101Z,20.97
2023-02-09T03:09:55.526Z,20.80
2023-02-09T03:12:50.999Z,20.77
2023-02-09T03:15:37.168Z,18.73
2023-02-09T03:18:18.773Z,20.00
2023-02-09T03:20:54.642Z,21.87
2023-02-09T03:23:38.123Z,20.20
2023-02-09T03:26:11.623Z,20.83
2023-02-09T03:28:41.447Z,19.00
2023-02-09T03:31:09.132Z,19.90
2023-02-09T03:33:38.871Z,19.10
2023-02-09T03:36:12.668Z,19.77
2023-02-09T03:38:39.608Z,20.70
2023-02-09T03:41:07.947Z,20.33
2023-02-09T03:43:53.279Z,20.70
2023-02-09T03:46:20.001Z,19.40
2023-02-09T03:48:47.825Z,17.50
2023-02-09T03:51:14.425Z,19.47
2023-02-09T03:53:41.056Z,17.40
2023-02-09T03:56:09.206Z,19.03
2023-02-09T03:58:36.625Z,18.23
2023-02-09T04:01:07.577Z,16.77
2023-02-09T04:03:34.787Z,19.23
2023-02-09T04:06:01.883Z,19.53
2023-02-09T04:08:30.055Z,19.93
2023-02-09T04:10:57.560Z,20.63
2023-02-09T04:13:25.101Z,19.60
2023-02-09T04:15:52.081Z,20.97
2023-02-09T04:18:19.172Z,18.23
2023-02-09T04:20:46.112Z,20.03
2023-02-09T04:23:13.331Z,20.87
2023-02-09T04:25:39.974Z,19.97
2023-02-09T04:28:06.608Z,19.30
2023-02-09T04:30:33.357Z,20.10
2023-02-09T04:33:00.002Z,21.40
2023-02-09T04:35:26.613Z,20.77
2023-02-09T04:37:53.281Z,20.60
2023-02-09T04:40:19.901Z,19.63
2023-02-09T04:42:47.086Z,20.00
2023-02-09T04:45:13.735Z,17.67
2023-02-09T04:47:40.388Z,19.80
2023-02-09T04:50:07.141Z,18.80
2023-02-09T04:52:33.836Z,18.73
2023-02-09T04:55:00.508Z,16.87
2023-02-09T04:57:45.727Z,17.73
2023-02-09T05:00:12.987Z,17.90
2023-02-09T05:02:39.682Z,18.40
2023-02-09T05:05:06.491Z,17.43
2023-02-09T05:07:33.112Z,17.67
2023-02-09T05:09:59.779Z,17.90
2023-02-09T05:12:26.516Z,17.07
2023-02-09T05:14:53.125Z,19.27
2023-02-09T05:17:21.123Z,17.47
2023-02-09T05:19:48.684Z,19.10
2023-02-09T05:22:15.440Z,17.60
2023-02-09T05:24:42.074Z,18.73
2023-02-09T05:27:08.710Z,18.27
2023-02-09T05:29:35.360Z,16.60
2023-02-09T05:32:02.023Z,17.87
2023-02-09T05:34:28.617Z,16.47
2023-02-09T05:36:55.259Z,15.43
2023-02-09T05:39:21.987Z,16.80
2023-02-09T05:42:07.729Z,15.53
2023-02-09T05:44:34.370Z,16.70
2023-02-09T05:47:01.029Z,16.23
2023-02-09T05:49:27.625Z,14.13
2023-02-09T05:51:54.412Z,15.63
2023-02-09T05:54:21.052Z,14.90
2023-02-09T05:56:47.896Z,15.13
2023-02-09T05:59:14.503Z,14.30
2023-02-09T06:01:41.135Z,14.60
2023-02-09T06:04:09.087Z,14.43
2023-02-09T06:06:36.388Z,15.20
2023-02-09T06:09:03.847Z,14.13
2023-02-09T06:11:30.722Z,14.50
2023-02-09T06:13:57.311Z,14.80
2023-02-09T06:16:24.158Z,13.40
2023-02-09T06:18:50.767Z,13.50
2023-02-09T06:21:17.474Z,12.93
2023-02-09T06:23:44.107Z,14.10
2023-02-09T06:26:13.110Z,14.30
2023-02-09T06:28:40.004Z,14.40
2023-02-09T06:31:07.448Z,14.33
2023-02-09T06:33:34.628Z,13.30
2023-02-09T06:36:01.467Z,14.23
2023-02-09T06:38:31.194Z,13.10
2023-02-09T06:40:57.865Z,13.37
2023-02-09T06:43:24.546Z,12.70
2023-02-09T06:45:51.246Z,12.50
2023-02-09T06:48:17.907Z,11.77
2023-02-09T06:50:45.029Z,10.27
2023-02-09T06:53:12.118Z,10.80
2023-02-09T06:55:38.800Z,12.70
2023-02-09T06:58:05.456Z,11.13
2023-02-09T07:00:32.347Z,10.43
2023-02-09T07:02:59.625Z,5.47
2023-02-09T07:05:26.797Z,8.30
2023-02-09T07:07:53.473Z,7.60
2023-02-09T07:10:20.162Z,7.90
2023-02-09T07:12:46.864Z,6.60
2023-02-09T07:15:14.313Z,6.70
2023-02-09T07:17:42.200Z,8.10
2023-02-09T07:20:09.534Z,7.10
2023-02-09T07:22:36.262Z,7.43
2023-02-09T07:25:02.918Z,7.10
2023-02-09T07:27:29.516Z,7.67
2023-02-09T07:29:56.096Z,8.73
2023-02-09T07:32:23.878Z,7.53
2023-02-09T07:34:50.675Z,6.80
2023-02-09T07:37:17.503Z,6.10
2023-02-09T07:39:44.160Z,7.50
2023-02-09T07:42:10.818Z,7.37
2023-02-09T07:44:37.436Z,7.63
2023-02-09T07:47:04.151Z,7.70
2023-02-09T07:49:33.923Z,7.87
2023-02-09T07:52:00.691Z,6.57
2023-02-09T07:54:27.279Z,7.50
2023-02-09T07:56:56.052Z,6.60
2023-02-09T07:59:22.829Z,7.67
2023-02-09T08:01:49.749Z,6.67
2023-02-09T08:04:16.445Z,9.13
2023-02-09T08:06:45.812Z,7.93
2023-02-09T08:09:14.939Z,6.70
2023-02-09T08:11:53.492Z,8.43
2023-02-09T08:14:36.701Z,8.23
2023-02-09T08:17:28.012Z,7.03
2023-02-09T08:20:00.819Z,8.53
2023-02-09T08:22:30.049Z,7.10
2023-02-09T08:24:57.779Z,9.03
2023-02-09T08:27:24.699Z,8.90
2023-02-09T08:29:51.834Z,8.17
2023-02-09T08:32:18.489Z,8.87
2023-02-09T08:34:45.252Z,7.17
2023-02-09T08:37:11.884Z,6.43
2023-02-09T08:39:38.497Z,8.30
2023-02-09T08:42:05.138Z,7.87
2023-02-09T08:44:31.813Z,7.90
2023-02-09T08:46:58.613Z,7.97
2023-02-09T08:49:25.311Z,8.63
2023-02-09T08:51:52.308Z,6.17
2023-02-09T08:54:19.016Z,7.67
2023-02-09T08:56:45.630Z,7.03
2023-02-09T08:59:12.585Z,7.20
2023-02-09T09:01:40.389Z,7.83
2023-02-09T09:04:07.543Z,7.70
2023-02-09T09:06:34.352Z,7.80
2023-02-09T09:09:01.036Z,7.83
2023-02-09T09:11:28.082Z,7.30
2023-02-09T09:13:54.672Z,5.43
2023-02-09T09:16:22.792Z,9.20
2023-02-09T09:18:50.141Z,6.40
2023-02-09T09:21:18.241Z,7.13
2023-02-09T09:23:46.049Z,7.03
2023-02-09T09:26:12.933Z,7.40
2023-02-09T09:28:39.602Z,5.20
2023-02-09T09:31:14.875Z,4.00
2023-02-09T09:33:42.672Z,7.83
2023-02-09T09:36:10.869Z,8.23
2023-02-09T09:38:38.964Z,7.50
2023-02-09T09:41:16.671Z,6.03
2023-02-09T09:43:43.288Z,7.23
2023-02-09T09:46:17.368Z,6.47
2023-02-09T09:49:03.101Z,8.60
2023-02-09T09:51:40.609Z,8.10
2023-02-09T09:54:13.995Z,8.40
2023-02-09T09:56:41.622Z,7.33
2023-02-09T09:59:18.903Z,7.40
2023-02-09T10:01:46.730Z,7.03
2023-02-09T10:04:14.879Z,7.53
2023-02-09T10:06:43.925Z,8.27
2023-02-09T10:09:33.178Z,7.57
2023-02-09T10:12:32.819Z,7.80
2023-02-09T10:14:59.812Z,6.90
2023-02-09T10:17:26.473Z,6.47
2023-02-09T10:20:01.444Z,6.77
2023-02-09T10:22:28.052Z,6.47
2023-02-09T10:24:55.024Z,7.17
2023-02-09T10:27:21.650Z,7.10
2023-02-09T10:29:48.400Z,8.43
2023-02-09T10:32:22.109Z,6.33
2023-02-09T10:34:54.648Z,7.30
2023-02-09T10:37:33.007Z,6.93
2023-02-09T10:40:18.143Z,7.73
2023-02-09T10:43:06.947Z,7.57
2023-02-09T10:45:40.783Z,8.20
2023-02-09T10:48:13.245Z,6.87
2023-02-09T10:50:48.957Z,7.37
2023-02-09T10:53:27.864Z,7.80
2023-02-09T10:56:18.631Z,7.67
2023-02-09T10:59:02.390Z,7.07
2023-02-09T11:01:33.269Z,6.80
2023-02-09T11:04:06.701Z,8.40
2023-02-09T11:06:56.201Z,6.83
2023-02-09T11:09:38.443Z,4.17
2023-02-09T11:12:09.515Z,7.80
2023-02-09T11:14:36.130Z,8.13
2023-02-09T11:17:27.157Z,6.90
2023-02-09T11:20:12.510Z,7.07
2023-02-09T11:23:03.406Z,7.23
2023-02-09T11:25:49.661Z,7.93
2023-02-09T11:28:38.282Z,6.00
2023-02-09T11:31:07.810Z,6.00
2023-02-09T11:33:50.606Z,7.67
2023-02-09T11:36:50.268Z,8.13
2023-02-09T11:39:27.446Z,8.10
2023-02-09T11:42:23.175Z,8.07
2023-02-09T11:45:06.742Z,7.50
2023-02-09T11:48:05.026Z,7.50
2023-02-09T11:50:59.531Z,5.10
2023-02-09T11:53:59.817Z,7.30
2023-02-09T11:56:28.292Z,7.30
2023-02-09T11:58:57.708Z,7.70
2023-02-09T12:01:49.873Z,7.07
2023-02-09T12:04:43.553Z,7.73
2023-02-09T12:07:33.157Z,5.60
2023-02-09T12:10:18.441Z,7.10
2023-02-09T12:13:01.400Z,8.37
2023-02-09T12:15:37.784Z,7.77
2023-02-09T12:18:10.990Z,7.20
2023-02-09T12:20:37.557Z,6.10
2023-02-09T12:23:24.589Z,7.77
2023-02-09T12:25:59.637Z,7.53
2023-02-09T12:28:32.473Z,7.73
2023-02-09T12:31:01.862Z,5.90
2023-02-09T12:33:33.282Z,8.07
2023-02-09T12:36:10.545Z,6.43
2023-02-09T12:39:07.144Z,7.27
2023-02-09T12:41:33.738Z,9.07
2023-02-09T12:44:09.564Z,6.33
2023-02-09T12:46:45.525Z,7.93
2023-02-09T12:49:12.143Z,7.93
2023-02-09T12:51:51.110Z,7.90
2023-02-09T12:54:39.356Z,7.80
2023-02-09T12:57:15.073Z,6.93
2023-02-09T13:00:00.631Z,7.70
2023-02-09T13:02:52.928Z,8.13
2023-02-09T13:05:34.016Z,7.13
2023-02-09T13:08:18.862Z,8.03
2023-02-09T13:11:02.922Z,8.03
2023-02-09T13:13:33.045Z,9.33
2023-02-09T13:16:26.793Z,8.40
2023-02-09T13:19:12.336Z,9.10
2023-02-09T13:22:19.082Z,7.73
2023-02-09T13:25:10.622Z,8.03
2023-02-09T13:27:48.539Z,7.83
2023-02-09T13:30:35.694Z,9.60
2023-02-09T13:33:20.714Z,8.90
2023-02-09T13:36:24.174Z,8.63
2023-02-09T13:38:51.974Z,8.43
2023-02-09T13:41:29.464Z,8.47
2023-02-09T13:43:56.112Z,7.90
2023-02-09T13:46:36.965Z,8.10
2023-02-09T13:49:12.293Z,7.23
2023-02-09T13:51:39.034Z,7.97
2023-02-09T13:54:05.760Z,7.43
2023-02-09T13:56:34.575Z,9.40
2023-02-09T13:59:01.411Z,9.60
2023-02-09T14:01:31.453Z,8.57
2023-02-09T14:04:25.515Z,7.23
2023-02-09T14:07:03.022Z,8.33
2023-02-09T14:09:40.887Z,8.33
2023-02-09T14:12:15.447Z,8.97
2023-02-09T14:15:06.053Z,8.90
2023-02-09T14:17:35.214Z,8.83
2023-02-09T14:20:01.994Z,10.37
2023-02-09T14:22:39.400Z,9.63
2023-02-09T14:25:29.632Z,8.67
2023-02-09T14:27:57.763Z,9.13
2023-02-09T14:30:31.465Z,8.40
2023-02-09T14:33:00.359Z,9.47
2023-02-09T14:35:28.956Z,8.77
2023-02-09T14:37:58.488Z,9.20
2023-02-09T14:40:34.406Z,8.73
2023-02-09T14:43:22.095Z,9.07
2023-02-09T14:45:59.050Z,9.03
2023-02-09T14:48:28.160Z,9.40
2023-02-09T14:51:09.841Z,9.83
2023-02-09T14:53:36.635Z,8.90
2023-02-09T14:56:03.344Z,9.40
2023-02-09T14:58:31.877Z,8.07
2023-02-09T15:01:01.759Z,8.63
2023-02-09T15:03:28.888Z,7.53
2023-02-09T15:05:58.964Z,9.20
2023-02-09T15:08:28.506Z,6.77
2023-02-09T15:11:24.066Z,8.57
2023-02-09T15:13:58.747Z,6.83
2023-02-09T15:16:25.514Z,8.87
2023-02-09T15:18:52.154Z,10.23
2023-02-09T15:21:18.749Z,9.13
2023-02-09T15:23:45.363Z,8.50
2023-02-09T15:26:16.989Z,8.97
2023-02-09T15:28:43.663Z,9.23
2023-02-09T15:31:16.084Z,8.70
2023-02-09T15:33:43.351Z,10.30
2023-02-09T15:36:18.928Z,6.53
2023-02-09T15:38:45.878Z,8.90
2023-02-09T15:41:31.159Z,7.83
2023-02-09T15:44:17.054Z,9.33
2023-02-09T15:47:04.728Z,5.73
2023-02-09T15:49:31.913Z,7.83
2023-02-09T15:51:58.570Z,9.60
2023-02-09T15:54:31.634Z,10.00
2023-02-09T15:56:58.976Z,9.37
2023-02-09T15:59:25.604Z,7.50
2023-02-09T16:01:52.330Z,10.27
2023-02-09T16:04:19.610Z,9.07
2023-02-09T16:06:52.314Z,6.77
2023-02-09T16:09:22.818Z,10.50
2023-02-09T16:11:49.561Z,9.30
2023-02-09T16:14:21.187Z,8.70
2023-02-09T16:16:48.688Z,10.40
2023-02-09T16:19:16.836Z,8.90
2023-02-09T16:21:51.312Z,10.13
2023-02-09T16:24:26.561Z,8.93
2023-02-09T16:26:53.141Z,8.27
2023-02-09T16:29:19.758Z,10.50
2023-02-09T16:31:46.448Z,7.70
2023-02-09T16:34:15.546Z,8.70
2023-02-09T16:36:43.111Z,9.27
2023-02-09T16:39:17.095Z,7.17
2023-02-09T16:41:47.257Z,9.40
2023-02-09T16:44:30.380Z,10.30
2023-02-09T16:46:58.670Z,8.43
2023-02-09T16:49:34.954Z,9.93
2023-02-09T16:52:12.793Z,8.50
2023-02-09T16:54:46.643Z,9.47
2023-02-09T16:57:17.133Z,9.80
2023-02-09T16:59:44.270Z,9.30
2023-02-09T17:02:34.752Z,10.03
2023-02-09T17:05:07.774Z,8.90
2023-02-09T17:07:48.685Z,8.37
2023-02-09T17:10:21.721Z,8.57
2023-02-09T17:12:48.418Z,9.40
2023-02-09T17:15:28.887Z,10.50
2023-02-09T17:18:01.959Z,10.53
2023-02-09T17:20:37.205Z,10.57
2023-02-09T17:23:04.543Z,10.37
2023-02-09T17:25:31.344Z,10.17
2023-02-09T17:27:58.113Z,8.40
2023-02-09T17:30:24.888Z,9.60
2023-02-09T17:33:01.839Z,11.80
2023-02-09T17:35:55.888Z,9.03
2023-02-09T17:38:22.736Z,11.33
2023-02-09T17:40:50.778Z,11.57
2023-02-09T17:43:17.752Z,11.70
2023-02-09T17:45:49.484Z,11.70
2023-02-09T17:48:17.179Z,10.23
2023-02-09T17:50:44.832Z,11.07
2023-02-09T17:53:16.744Z,11.17
2023-02-09T17:55:45.075Z,11.73
2023-02-09T17:58:13.210Z,9.80
2023-02-09T18:00:41.018Z,10.60
2023-02-09T18:03:11.206Z,11.40
2023-02-09T18:05:40.355Z,10.73
2023-02-09T18:08:07.867Z,11.07
2023-02-09T18:10:34.667Z,11.97
2023-02-09T18:13:01.431Z,11.73
2023-02-09T18:15:34.989Z,9.77
2023-02-09T18:18:02.280Z,11.70
2023-02-09T18:20:33.199Z,12.17
2023-02-09T18:23:02.515Z,11.50
2023-02-09T18:25:37.902Z,11.70
2023-02-09T18:28:06.821Z,13.47
2023-02-09T18:30:36.033Z,12.30
2023-02-09T18:33:03.484Z,11.90
2023-02-09T18:35:35.137Z,11.10
2023-02-09T18:38:03.796Z,11.63
2023-02-09T18:40:32.108Z,12.10
2023-02-09T18:43:00.181Z,13.20
2023-02-09T18:45:27.273Z,11.90
2023-02-09T18:47:54.507Z,10.67
2023-02-09T18:50:25.839Z,12.23
2023-02-09T18:52:55.620Z,12.37
2023-02-09T18:55:29.276Z,11.67
2023-02-09T18:57:58.608Z,11.53
2023-02-09T19:00:26.454Z,13.50
2023-02-09T19:02:57.441Z,13.60
2023-02-09T19:05:26.654Z,11.80
2023-02-09T19:07:54.613Z,12.50
2023-02-09T19:10:22.009Z,11.60
2023-02-09T19:12:49.022Z,12.27
2023-02-09T19:15:22.406Z,13.33
2023-02-09T19:17:49.112Z,13.67
2023-02-09T19:20:21.695Z,13.47
2023-02-09T19:22:51.386Z,13.10
2023-02-09T19:25:20.045Z,14.67
2023-02-09T19:27:47.134Z,12.83
2023-02-09T19:30:16.462Z,13.70
2023-02-09T19:32:43.109Z,14.90
2023-02-09T19:35:09.786Z,12.87
2023-02-09T19:37:37.396Z,14.07
2023-02-09T19:40:06.960Z,14.70
2023-02-09T19:42:34.096Z,13.70
2023-02-09T19:45:00.837Z,14.37
2023-02-09T19:47:28.058Z,14.43
2023-02-09T19:49:56.548Z,15.43
2023-02-09T19:52:23.849Z,14.17
2023-02-09T19:54:50.808Z,13.73
2023-02-09T19:57:22.041Z,13.90
2023-02-09T19:59:48.958Z,13.70
2023-02-09T20:02:17.058Z,14.37
2023-02-09T20:04:45.772Z,12.87
2023-02-09T20:07:13.744Z,15.27
2023-02-09T20:09:42.084Z,15.67
2023-02-09T20:12:08.976Z,16.03
2023-02-09T20:14:35.573Z,12.93
2023-02-09T20:17:02.367Z,15.00
2023-02-09T20:19:29.187Z,16.80
2023-02-09T20:21:55.838Z,16.93
2023-02-09T20:24:23.554Z,15.37
2023-02-09T20:26:50.255Z,17.17
2023-02-09T20:29:17.031Z,17.03
2023-02-09T20:31:44.858Z,15.90
2023-02-09T20:34:14.078Z,16.00
2023-02-09T20:36:42.697Z,16.23
2023-02-09T20:39:13.397Z,16.93
2023-02-09T20:42:00.047Z,17.40
2023-02-09T20:44:45.523Z,16.60
2023-02-09T20:47:12.273Z,18.73
2023-02-09T20:49:40.587Z,16.47
2023-02-09T20:52:07.823Z,16.43
2023-02-09T20:54:34.958Z,17.30
2023-02-09T20:57:01.775Z,17.10
2023-02-09T20:59:28.781Z,17.23
2023-02-09T21:01:55.381Z,17.47
2023-02-09T21:04:26.496Z,18.00
2023-02-09T21:06:53.885Z,18.57
2023-02-09T21:09:26.047Z,19.00
2023-02-09T21:11:53.962Z,19.03
2023-02-09T21:14:32.302Z,21.37
2023-02-09T21:17:05.837Z,19.10
2023-02-09T21:19:34.379Z,19.57
2023-02-09T21:22:00.998Z,19.17
2023-02-09T21:24:27.628Z,20.90
2023-02-09T21:26:54.241Z,21.30
2023-02-09T21:29:21.240Z,21.23
2023-02-09T21:31:48.121Z,22.27
2023-02-09T21:34:16.571Z,21.60
2023-02-09T21:36:43.387Z,20.73
2023-02-09T21:39:10.232Z,21.50
2023-02-09T21:41:55.667Z,21.27
2023-02-09T21:44:22.457Z,21.97
2023-02-09T21:46:50.230Z,19.53
2023-02-09T21:49:16.993Z,20.47
2023-02-09T21:51:43.692Z,18.97
2023-02-09T21:54:15.633Z,19.60
2023-02-09T21:56:43.151Z,18.43
2023-02-09T21:59:09.921Z,18.83
2023-02-09T22:01:36.996Z,19.30
2023-02-09T22:04:04.001Z,19.33
2023-02-09T22:06:31.526Z,20.33
2023-02-09T22:09:00.389Z,18.93
2023-02-09T22:11:27.130Z,18.50
2023-02-09T22:13:53.937Z,20.63
2023-02-09T22:16:22.120Z,19.67
2023-02-09T22:18:48.751Z,20.00
2023-02-09T22:21:15.890Z,21.40
2023-02-09T22:23:42.615Z,20.93
2023-02-09T22:26:10.235Z,18.73
2023-02-09T22:28:37.004Z,19.57
2023-02-09T22:31:09.013Z,18.03
2023-02-09T22:33:35.997Z,20.80
2023-02-09T22:36:07.545Z,20.33
2023-02-09T22:38:35.427Z,17.83
2023-02-09T22:41:07.239Z,18.60
2023-02-09T22:43:34.780Z,19.97
2023-02-09T22:46:01.577Z,17.87
2023-02-09T22:48:28.357Z,18.67
2023-02-09T22:50:54.972Z,19.00
2023-02-09T22:53:21.618Z,19.07
2023-02-09T22:55:49.376Z,18.50
2023-02-09T22:58:16.298Z,19.27
2023-02-09T23:00:43.137Z,19.63
2023-02-09T23:03:09.885Z,19.93
2023-02-09T23:05:36.566Z,20.47
2023-02-09T23:08:03.504Z,18.87
2023-02-09T23:10:31.000Z,19.73
2023-02-09T23:12:57.743Z,17.17
2023-02-09T23:15:24.368Z,18.83
2023-02-09T23:17:51.048Z,17.90
2023-02-09T23:20:17.795Z,18.30
2023-02-09T23:22:44.436Z,16.70
2023-02-09T23:25:11.097Z,17.57
2023-02-09T23:27:37.765Z,19.17
2023-02-09T23:30:04.736Z,17.73
2023-02-09T23:32:31.332Z,19.10
2023-02-09T23:37:37.772Z,18.77
2023-02-09T23:40:05.322Z,18.57
2023-02-09T23:42:31.999Z,19.27
2023-02-09T23:44:58.636Z,17.60
2023-02-09T23:47:25.272Z,18.60
2023-02-09T23:49:51.913Z,18.83
2023-02-09T23:52:18.550Z,7.90
2023-02-09T23:54:45.167Z,18.50
2023-02-09T23:57:11.823Z,17.90
2023-02-09T23:59:38.847Z,19.13
